createdAt,value
2019-05-29T00:01:12.187Z,2.57
2019-05-29T00:03:36.217Z,2.03
2019-05-29T00:06:04.638Z,2.07
2019-05-29T00:08:33.612Z,5.07
2019-05-29T00:11:02.332Z,8.23
2019-05-29T00:13:30.754Z,3.97
2019-05-29T00:15:59.177Z,6.03
2019-05-29T00:18:27.604Z,2.60
2019-05-29T00:20:56.434Z,2.63
2019-05-29T00:23:44.282Z,4.60
2019-05-29T00:26:12.703Z,5.30
2019-05-29T00:28:41.623Z,2.17
2019-05-29T00:31:12.194Z,2.27
2019-05-29T00:33:40.758Z,1.57
2019-05-29T00:36:10.273Z,5.27
2019-05-29T00:38:39.386Z,2.53
2019-05-29T00:41:08.805Z,1.90
2019-05-29T00:43:37.304Z,5.13
2019-05-29T00:46:05.741Z,2.47
2019-05-29T00:48:34.753Z,2.70
2019-05-29T00:51:05.006Z,3.37
2019-05-29T00:53:33.437Z,3.37
2019-05-29T00:56:02.113Z,1.80
2019-05-29T00:58:30.545Z,3.60
2019-05-29T01:00:59.135Z,2.33
2019-05-29T01:03:27.573Z,5.83
2019-05-29T01:05:56.277Z,2.30
2019-05-29T01:08:25.563Z,1.87
2019-05-29T01:10:54.046Z,1.80
2019-05-29T01:13:22.646Z,2.20
2019-05-29T01:15:51.369Z,3.00
2019-05-29T01:18:20.624Z,3.70
2019-05-29T01:20:49.392Z,2.70
2019-05-29T01:23:18.349Z,2.90
2019-05-29T01:25:47.310Z,2.90
2019-05-29T01:28:16.812Z,3.93
2019-05-29T01:30:46.096Z,2.57
2019-05-29T01:33:18.565Z,2.23
2019-05-29T01:35:45.145Z,2.23
2019-05-29T01:38:13.570Z,1.60
2019-05-29T01:40:43.696Z,3.30
2019-05-29T01:43:12.105Z,2.63
2019-05-29T01:45:40.533Z,2.73
2019-05-29T01:48:08.950Z,3.47
2019-05-29T01:50:37.383Z,3.63
2019-05-29T01:53:06.508Z,5.87
2019-05-29T01:55:35.462Z,2.37
2019-05-29T01:58:04.138Z,2.77
2019-05-29T02:00:32.565Z,5.27
2019-05-29T02:03:00.993Z,2.40
2019-05-29T02:05:29.952Z,7.90
2019-05-29T02:07:59.106Z,4.13
2019-05-29T02:10:27.671Z,2.90
2019-05-29T02:12:56.153Z,3.10
2019-05-29T02:15:32.152Z,3.47
2019-05-29T02:17:55.187Z,5.60
2019-05-29T02:20:25.189Z,4.93
2019-05-29T02:22:53.841Z,3.63
2019-05-29T02:25:24.251Z,3.73
2019-05-29T02:27:53.158Z,3.63
2019-05-29T02:30:23.561Z,3.67
2019-05-29T02:32:51.982Z,4.30
2019-05-29T02:35:22.376Z,4.70
2019-05-29T02:37:51.459Z,4.20
2019-05-29T02:40:21.335Z,4.60
2019-05-29T02:42:52.002Z,3.50
2019-05-29T02:45:21.604Z,6.30
2019-05-29T02:47:51.068Z,5.97
2019-05-29T02:50:19.963Z,6.17
2019-05-29T02:52:48.486Z,5.53
2019-05-29T02:55:17.336Z,8.07
2019-05-29T02:57:46.276Z,8.33
2019-05-29T03:00:15.995Z,6.33
2019-05-29T03:02:44.412Z,8.83
2019-05-29T03:05:12.911Z,10.13
2019-05-29T03:07:41.800Z,11.33
2019-05-29T03:10:11.059Z,9.17
2019-05-29T03:12:40.823Z,8.37
2019-05-29T03:15:09.745Z,10.77
2019-05-29T03:17:38.161Z,10.80
2019-05-29T03:20:07.587Z,13.40
2019-05-29T03:22:36.138Z,14.53
2019-05-29T03:25:07.201Z,12.63
2019-05-29T03:27:35.966Z,13.07
2019-05-29T03:30:07.068Z,16.47
2019-05-29T03:32:45.626Z,18.70
2019-05-29T03:35:06.805Z,19.50
2019-05-29T03:37:35.582Z,18.43
2019-05-29T03:40:06.453Z,19.50
2019-05-29T03:42:35.193Z,20.17
2019-05-29T03:45:04.307Z,20.23
2019-05-29T03:47:33.169Z,20.47
2019-05-29T03:50:04.639Z,25.27
2019-05-29T03:52:34.709Z,20.80
2019-05-29T03:55:04.867Z,24.07
2019-05-29T03:57:34.355Z,20.17
2019-05-29T04:00:05.769Z,21.23
2019-05-29T04:02:35.663Z,22.27
2019-05-29T04:05:06.820Z,21.03
2019-05-29T04:07:35.697Z,22.67
2019-05-29T04:10:07.818Z,23.47
2019-05-29T04:12:38.032Z,22.57
2019-05-29T04:15:07.459Z,22.57
2019-05-29T04:17:38.049Z,19.33
2019-05-29T04:20:08.344Z,18.30
2019-05-29T04:22:42.933Z,18.33
2019-05-29T04:25:12.381Z,19.67
2019-05-29T04:27:42.709Z,23.13
2019-05-29T04:30:11.977Z,21.03
2019-05-29T04:32:40.406Z,18.47
2019-05-29T04:35:09.368Z,20.57
2019-05-29T04:37:39.900Z,17.33
2019-05-29T04:40:08.970Z,19.30
2019-05-29T04:42:39.663Z,17.40
2019-05-29T04:45:09.571Z,18.83
2019-05-29T04:47:39.569Z,20.07
2019-05-29T04:50:09.531Z,22.10
2019-05-29T04:52:39.855Z,17.33
2019-05-29T04:55:08.341Z,18.17
2019-05-29T04:57:37.210Z,22.27
2019-05-29T05:00:07.221Z,20.73
2019-05-29T05:02:37.163Z,20.97
2019-05-29T05:05:09.751Z,18.30
2019-05-29T05:07:39.639Z,20.73
2019-05-29T05:10:09.190Z,23.07
2019-05-29T05:12:38.153Z,20.17
2019-05-29T05:15:07.971Z,21.93
2019-05-29T05:17:38.019Z,23.03
2019-05-29T05:20:07.308Z,24.47
2019-05-29T05:22:36.391Z,24.07
2019-05-29T05:25:06.568Z,21.23
2019-05-29T05:27:36.333Z,22.20
2019-05-29T05:30:08.880Z,21.43
2019-05-29T05:32:36.930Z,20.67
2019-05-29T05:35:06.934Z,24.17
2019-05-29T05:37:35.380Z,21.93
2019-05-29T05:40:06.413Z,27.70
2019-05-29T05:42:35.033Z,24.67
2019-05-29T05:45:05.034Z,25.33
2019-05-29T05:47:44.849Z,24.73
2019-05-29T05:50:06.810Z,25.17
2019-05-29T05:52:35.394Z,26.13
2019-05-29T05:55:05.918Z,22.47
2019-05-29T05:57:35.585Z,23.03
2019-05-29T06:00:09.023Z,25.60
2019-05-29T06:02:38.217Z,22.67
2019-05-29T06:05:07.904Z,23.47
2019-05-29T06:07:38.130Z,22.20
2019-05-29T06:10:07.863Z,18.27
2019-05-29T06:12:36.864Z,18.27
2019-05-29T06:15:08.246Z,18.20
2019-05-29T06:17:37.114Z,19.13
2019-05-29T06:20:08.473Z,19.57
2019-05-29T06:22:37.270Z,18.70
2019-05-29T06:25:06.057Z,17.90
2019-05-29T06:27:35.181Z,15.07
2019-05-29T06:30:05.715Z,16.33
2019-05-29T06:32:35.340Z,14.93
2019-05-29T06:35:07.886Z,20.70
2019-05-29T06:37:37.537Z,13.53
2019-05-29T06:40:27.065Z,14.83
2019-05-29T06:42:56.213Z,14.97
2019-05-29T06:45:30.662Z,15.10
2019-05-29T06:47:59.154Z,13.17
2019-05-29T06:50:27.655Z,12.20
2019-05-29T06:52:56.132Z,11.53
2019-05-29T06:55:24.577Z,14.47
2019-05-29T06:57:52.994Z,11.77
2019-05-29T07:00:34.859Z,12.10
2019-05-29T07:02:52.462Z,11.50
2019-05-29T07:05:21.162Z,11.83
2019-05-29T07:07:49.601Z,10.97
2019-05-29T07:10:18.527Z,11.10
2019-05-29T07:12:46.687Z,11.10
2019-05-29T07:15:14.863Z,17.57
2019-05-29T07:17:44.472Z,14.60
2019-05-29T07:20:13.328Z,12.30
2019-05-29T07:22:42.994Z,14.57
2019-05-29T07:25:11.780Z,11.97
2019-05-29T07:27:40.939Z,13.40
2019-05-29T07:30:09.857Z,15.10
2019-05-29T07:32:40.458Z,12.47
2019-05-29T07:35:09.021Z,13.13
2019-05-29T07:37:38.016Z,13.13
2019-05-29T07:40:08.107Z,11.80
2019-05-29T07:42:37.028Z,11.33
2019-05-29T07:45:07.797Z,13.47
2019-05-29T07:47:36.357Z,12.43
2019-05-29T07:50:24.121Z,11.60
2019-05-29T07:52:52.583Z,12.57
2019-05-29T07:55:23.612Z,15.10
2019-05-29T07:57:51.138Z,12.80
2019-05-29T08:00:20.010Z,13.30
2019-05-29T08:02:49.385Z,11.70
2019-05-29T08:05:18.083Z,11.43
2019-05-29T08:07:47.452Z,12.87
2019-05-29T08:10:16.846Z,10.83
2019-05-29T08:12:50.487Z,11.40
2019-05-29T08:15:15.086Z,11.80
2019-05-29T08:17:44.077Z,14.13
2019-05-29T08:20:12.428Z,10.70
2019-05-29T08:22:40.565Z,11.07
2019-05-29T08:25:09.229Z,10.47
2019-05-29T08:27:37.390Z,14.33
2019-05-29T08:30:09.608Z,12.23
2019-05-29T08:32:38.034Z,12.77
2019-05-29T08:35:09.623Z,13.03
2019-05-29T08:37:38.029Z,11.73
2019-05-29T08:40:07.798Z,12.60
2019-05-29T08:42:36.288Z,13.47
2019-05-29T08:45:08.589Z,14.63
2019-05-29T08:47:37.010Z,12.27
2019-05-29T08:50:17.987Z,12.47
2019-05-29T08:52:36.668Z,13.73
2019-05-29T08:55:05.950Z,11.20
2019-05-29T08:57:34.374Z,12.30
2019-05-29T09:00:04.000Z,13.37
2019-05-29T09:02:32.664Z,13.60
2019-05-29T09:05:01.215Z,12.60
2019-05-29T09:07:29.687Z,11.93
2019-05-29T09:09:58.126Z,12.03
2019-05-29T09:12:29.824Z,11.67
2019-05-29T09:14:57.670Z,11.07
2019-05-29T09:17:26.321Z,11.00
2019-05-29T09:19:54.875Z,10.80
2019-05-29T09:22:23.309Z,14.00
2019-05-29T09:24:51.791Z,9.77
2019-05-29T09:27:21.212Z,10.33
2019-05-29T09:29:49.930Z,10.50
2019-05-29T09:32:45.530Z,9.83
2019-05-29T09:34:49.315Z,9.60
2019-05-29T09:37:19.046Z,9.17
2019-05-29T09:39:47.565Z,9.07
2019-05-29T09:42:17.377Z,10.87
2019-05-29T09:44:46.160Z,10.43
2019-05-29T09:47:15.544Z,10.77
2019-05-29T09:50:07.150Z,12.23
2019-05-29T09:52:35.820Z,10.20
2019-05-29T09:55:06.038Z,11.60
2019-05-29T09:57:34.461Z,12.13
2019-05-29T10:00:04.240Z,12.20
2019-05-29T10:02:33.003Z,12.23
2019-05-29T10:05:02.946Z,11.37
2019-05-29T10:07:31.664Z,11.40
2019-05-29T10:10:01.124Z,11.53
2019-05-29T10:12:30.247Z,7.70
2019-05-29T10:14:59.618Z,7.97
2019-05-29T10:17:28.814Z,8.03
2019-05-29T10:19:58.989Z,6.90
2019-05-29T10:22:27.690Z,7.87
2019-05-29T10:24:56.745Z,8.83
2019-05-29T10:27:27.429Z,8.67
2019-05-29T10:29:55.929Z,9.07
2019-05-29T10:32:24.920Z,9.50
2019-05-29T10:35:12.637Z,8.77
2019-05-29T10:37:42.577Z,8.93
2019-05-29T10:40:11.483Z,8.83
2019-05-29T10:42:40.253Z,9.33
2019-05-29T10:45:09.518Z,11.53
2019-05-29T10:47:38.081Z,10.50
2019-05-29T10:50:08.614Z,9.20
2019-05-29T10:52:37.061Z,9.20
2019-05-29T10:55:07.222Z,9.10
2019-05-29T10:57:35.969Z,9.33
2019-05-29T11:00:07.465Z,8.80
2019-05-29T11:02:36.132Z,9.53
2019-05-29T11:05:05.742Z,8.90
2019-05-29T11:07:34.506Z,9.97
2019-05-29T11:10:03.351Z,9.27
2019-05-29T11:12:32.018Z,10.30
2019-05-29T11:15:00.442Z,9.70
2019-05-29T11:17:28.874Z,10.60
2019-05-29T11:19:58.208Z,11.17
2019-05-29T11:22:27.392Z,8.53
2019-05-29T11:24:56.605Z,8.17
2019-05-29T11:27:26.110Z,7.73
2019-05-29T11:29:55.269Z,7.83
2019-05-29T11:32:24.126Z,7.13
2019-05-29T11:34:53.868Z,7.87
2019-05-29T11:37:22.841Z,6.73
2019-05-29T11:39:52.449Z,8.20
2019-05-29T11:42:27.151Z,7.77
2019-05-29T11:44:53.293Z,8.63
2019-05-29T11:47:21.819Z,8.17
2019-05-29T11:49:50.979Z,8.07
2019-05-29T11:52:24.800Z,7.57
2019-05-29T11:54:52.713Z,9.47
2019-05-29T11:57:19.953Z,8.30
2019-05-29T11:59:48.465Z,10.60
2019-05-29T12:02:17.215Z,9.40
2019-05-29T12:04:45.697Z,8.60
2019-05-29T12:07:14.350Z,8.63
2019-05-29T12:09:42.875Z,7.17
2019-05-29T12:12:11.698Z,6.43
2019-05-29T12:14:59.119Z,5.90
2019-05-29T12:17:10.545Z,4.90
2019-05-29T12:19:38.982Z,5.00
2019-05-29T12:22:08.063Z,4.00
2019-05-29T12:24:36.523Z,5.10
2019-05-29T12:27:05.211Z,4.50
2019-05-29T12:29:34.422Z,5.77
2019-05-29T12:32:08.182Z,6.73
2019-05-29T12:34:33.557Z,6.67
2019-05-29T12:37:03.742Z,7.70
2019-05-29T12:39:32.426Z,8.03
2019-05-29T12:42:01.807Z,8.67
2019-05-29T12:44:31.295Z,8.10
2019-05-29T12:46:59.856Z,8.00
2019-05-29T12:49:28.451Z,7.37
2019-05-29T12:51:57.674Z,7.57
2019-05-29T12:54:26.550Z,5.73
2019-05-29T12:56:55.801Z,7.80
2019-05-29T12:59:24.459Z,5.43
2019-05-29T13:01:54.321Z,5.43
2019-05-29T13:04:23.042Z,4.77
2019-05-29T13:06:51.602Z,5.33
2019-05-29T13:09:20.019Z,5.63
2019-05-29T13:11:48.443Z,7.70
2019-05-29T13:14:17.067Z,5.60
2019-05-29T13:16:45.722Z,5.40
2019-05-29T13:19:15.398Z,5.47
2019-05-29T13:21:44.778Z,6.53
2019-05-29T13:24:13.210Z,4.80
2019-05-29T13:26:42.126Z,4.40
2019-05-29T13:29:10.627Z,4.97
2019-05-29T13:31:39.615Z,4.60
2019-05-29T13:34:15.164Z,5.30
2019-05-29T13:36:44.124Z,4.83
2019-05-29T13:39:14.855Z,5.23
2019-05-29T13:41:44.150Z,4.87
2019-05-29T13:44:12.730Z,8.57
2019-05-29T13:46:42.097Z,6.13
2019-05-29T13:49:11.075Z,4.70
2019-05-29T13:51:40.637Z,5.47
2019-05-29T13:54:15.358Z,7.17
2019-05-29T13:56:39.429Z,5.70
2019-05-29T13:59:08.425Z,6.30
2019-05-29T14:01:37.064Z,5.30
2019-05-29T14:04:06.733Z,5.93
2019-05-29T14:06:35.545Z,5.87
2019-05-29T14:09:07.599Z,6.80
2019-05-29T14:11:36.457Z,4.20
2019-05-29T14:14:08.531Z,4.57
2019-05-29T14:16:36.378Z,6.30
2019-05-29T14:19:04.936Z,4.40
2019-05-29T14:21:33.591Z,6.23
2019-05-29T14:24:08.723Z,3.63
2019-05-29T14:26:32.886Z,3.07
2019-05-29T14:29:01.440Z,5.63
2019-05-29T14:31:30.525Z,3.40
2019-05-29T14:34:00.872Z,3.27
2019-05-29T14:36:41.317Z,6.40
2019-05-29T14:39:10.057Z,2.60
2019-05-29T14:41:38.641Z,4.10
2019-05-29T14:44:07.907Z,2.53
2019-05-29T14:46:36.535Z,3.87
2019-05-29T14:49:06.285Z,2.90
2019-05-29T14:51:34.911Z,3.43
2019-05-29T14:54:04.606Z,3.33
2019-05-29T14:56:32.911Z,4.10
2019-05-29T14:59:03.008Z,3.37
2019-05-29T15:01:31.751Z,5.20
2019-05-29T15:03:59.837Z,4.33
2019-05-29T15:06:28.264Z,3.40
2019-05-29T15:08:56.687Z,3.63
2019-05-29T15:11:25.119Z,5.27
2019-05-29T15:13:53.781Z,4.80
2019-05-29T15:16:21.869Z,3.33
2019-05-29T15:18:49.980Z,3.73
2019-05-29T15:21:18.115Z,3.70
2019-05-29T15:23:46.228Z,2.97
2019-05-29T15:26:14.366Z,4.73
2019-05-29T15:28:42.445Z,4.47
2019-05-29T15:31:10.840Z,4.20
2019-05-29T15:33:38.922Z,3.17
2019-05-29T15:36:08.559Z,5.43
2019-05-29T15:38:36.899Z,4.60
2019-05-29T15:41:05.005Z,3.00
2019-05-29T15:43:33.078Z,4.10
2019-05-29T15:46:01.188Z,3.10
2019-05-29T15:48:29.267Z,5.93
2019-05-29T15:50:57.688Z,2.97
2019-05-29T15:53:26.100Z,3.63
2019-05-29T15:55:54.610Z,4.10
2019-05-29T15:58:23.024Z,3.33
2019-05-29T16:00:51.118Z,2.60
2019-05-29T16:03:19.196Z,2.67
2019-05-29T16:06:07.672Z,4.33
2019-05-29T16:08:36.214Z,2.70
2019-05-29T16:11:04.722Z,4.83
2019-05-29T16:13:33.139Z,2.83
2019-05-29T16:16:01.567Z,2.93
2019-05-29T16:18:29.836Z,3.97
2019-05-29T16:20:58.009Z,5.30
2019-05-29T16:23:35.351Z,2.50
2019-05-29T16:25:55.905Z,2.80
2019-05-29T16:28:23.978Z,4.87
2019-05-29T16:30:52.090Z,3.00
2019-05-29T16:33:20.179Z,2.50
2019-05-29T16:36:14.456Z,2.40
2019-05-29T16:38:43.070Z,2.53
2019-05-29T16:41:11.622Z,2.30
2019-05-29T16:43:40.022Z,2.30
2019-05-29T16:46:08.107Z,3.73
2019-05-29T16:48:36.189Z,2.70
2019-05-29T16:51:04.282Z,2.00
2019-05-29T16:53:32.363Z,3.90
2019-05-29T16:56:00.459Z,2.60
2019-05-29T16:58:28.541Z,2.50
2019-05-29T17:00:56.625Z,2.60
2019-05-29T17:03:24.721Z,1.90
2019-05-29T17:05:52.874Z,2.37
2019-05-29T17:08:22.233Z,2.90
2019-05-29T17:10:50.841Z,3.40
2019-05-29T17:13:18.930Z,2.90
2019-05-29T17:15:47.017Z,2.03
2019-05-29T17:18:15.109Z,3.07
2019-05-29T17:20:44.152Z,2.20
2019-05-29T17:23:15.231Z,1.83
2019-05-29T17:25:43.648Z,3.23
2019-05-29T17:28:12.081Z,2.97
2019-05-29T17:30:40.158Z,4.37
2019-05-29T17:33:08.896Z,3.23
2019-05-29T17:35:37.423Z,3.30
2019-05-29T17:38:05.509Z,2.67
2019-05-29T17:40:33.949Z,2.60
2019-05-29T17:43:02.040Z,2.30
2019-05-29T17:45:30.130Z,2.57
2019-05-29T17:47:58.208Z,2.97
2019-05-29T17:50:26.804Z,2.87
2019-05-29T17:52:55.259Z,3.80
2019-05-29T17:55:24.871Z,2.60
2019-05-29T17:57:53.536Z,2.40
2019-05-29T18:00:22.640Z,3.20
2019-05-29T18:02:52.624Z,5.03
2019-05-29T18:05:21.060Z,3.97
2019-05-29T18:07:49.482Z,2.80
2019-05-29T18:10:19.347Z,2.50
2019-05-29T18:12:48.052Z,2.40
2019-05-29T18:15:19.510Z,5.20
2019-05-29T18:17:48.169Z,3.13
2019-05-29T18:20:17.902Z,2.80
2019-05-29T18:22:46.520Z,4.67
2019-05-29T18:25:14.985Z,2.53
2019-05-29T18:27:43.465Z,3.20
2019-05-29T18:30:12.653Z,4.07
2019-05-29T18:32:41.074Z,2.27
2019-05-29T18:35:09.352Z,3.33
2019-05-29T18:37:37.473Z,2.70
2019-05-29T18:40:11.463Z,2.50
2019-05-29T18:42:37.320Z,2.90
2019-05-29T18:45:20.464Z,2.40
2019-05-29T18:47:38.727Z,2.87
2019-05-29T18:50:07.772Z,2.47
2019-05-29T18:52:36.189Z,7.07
2019-05-29T18:55:07.217Z,6.17
2019-05-29T18:57:35.304Z,2.50
2019-05-29T19:00:06.873Z,2.60
2019-05-29T19:02:35.289Z,2.63
2019-05-29T19:05:23.593Z,3.57
2019-05-29T19:07:51.903Z,3.20
2019-05-29T19:10:20.105Z,2.20
2019-05-29T19:12:48.516Z,4.50
2019-05-29T19:15:17.356Z,2.97
2019-05-29T19:17:45.769Z,4.27
2019-05-29T19:20:14.221Z,2.20
2019-05-29T19:22:42.640Z,3.00
2019-05-29T19:25:11.701Z,5.00
2019-05-29T19:27:42.143Z,2.70
2019-05-29T19:30:10.175Z,3.67
2019-05-29T19:32:38.257Z,2.43
2019-05-29T19:35:08.022Z,2.93
2019-05-29T19:37:36.788Z,4.47
2019-05-29T19:40:05.150Z,3.00
2019-05-29T19:42:34.345Z,2.73
2019-05-29T19:45:03.005Z,3.17
2019-05-29T19:47:31.088Z,2.80
2019-05-29T19:49:59.202Z,4.27
2019-05-29T19:52:27.281Z,4.93
2019-05-29T19:54:55.365Z,4.80
2019-05-29T19:57:23.473Z,6.17
2019-05-29T19:59:52.199Z,3.77
2019-05-29T20:02:20.618Z,4.10
2019-05-29T20:04:49.041Z,5.27
2019-05-29T20:07:17.116Z,4.80
2019-05-29T20:09:45.200Z,4.77
2019-05-29T20:12:13.286Z,4.87
2019-05-29T20:14:41.386Z,4.73
2019-05-29T20:17:09.458Z,4.70
2019-05-29T20:19:40.478Z,5.20
2019-05-29T20:22:07.365Z,6.03
2019-05-29T20:24:35.450Z,5.17
2019-05-29T20:27:03.873Z,5.03
2019-05-29T20:29:32.432Z,5.50
2019-05-29T20:32:00.893Z,5.37
2019-05-29T20:34:30.716Z,5.20
2019-05-29T20:36:59.521Z,5.10
2019-05-29T20:39:27.953Z,5.73
2019-05-29T20:41:56.020Z,5.07
2019-05-29T20:44:24.461Z,6.10
2019-05-29T20:46:52.542Z,5.17
2019-05-29T20:49:20.967Z,5.63
2019-05-29T20:51:49.389Z,7.03
2019-05-29T20:54:17.464Z,5.93
2019-05-29T20:56:46.150Z,5.50
2019-05-29T20:59:14.313Z,8.70
2019-05-29T21:01:46.888Z,7.00
2019-05-29T21:04:12.209Z,7.83
2019-05-29T21:06:40.707Z,7.07
2019-05-29T21:09:09.202Z,6.60
2019-05-29T21:11:37.666Z,8.43
2019-05-29T21:14:06.256Z,7.70
2019-05-29T21:16:35.515Z,7.53
2019-05-29T21:19:04.023Z,5.37
2019-05-29T21:21:32.455Z,5.27
2019-05-29T21:24:00.869Z,5.10
2019-05-29T21:26:28.957Z,10.50
2019-05-29T21:28:57.036Z,5.37
2019-05-29T21:31:25.123Z,8.03
2019-05-29T21:33:53.208Z,6.03
2019-05-29T21:36:21.296Z,6.23
2019-05-29T21:38:49.376Z,5.20
2019-05-29T21:41:17.511Z,5.70
2019-05-29T21:43:46.874Z,6.00
2019-05-29T21:46:15.159Z,4.80
2019-05-29T21:48:43.414Z,4.80
2019-05-29T21:51:11.618Z,4.43
2019-05-29T21:53:39.692Z,4.37
2019-05-29T21:56:07.782Z,4.47
2019-05-29T21:58:35.861Z,5.00
2019-05-29T22:01:04.891Z,5.47
2019-05-29T22:03:33.292Z,5.30
2019-05-29T22:06:01.709Z,6.43
2019-05-29T22:08:30.116Z,5.70
2019-05-29T22:10:59.505Z,5.57
2019-05-29T22:13:28.265Z,7.87
2019-05-29T22:15:56.858Z,6.13
2019-05-29T22:18:25.176Z,5.47
2019-05-29T22:20:55.766Z,5.63
2019-05-29T22:23:23.708Z,5.87
2019-05-29T22:25:53.071Z,5.27
2019-05-29T22:28:21.586Z,5.67
2019-05-29T22:30:49.684Z,5.60
2019-05-29T22:33:18.114Z,5.07
2019-05-29T22:35:46.525Z,4.87
2019-05-29T22:38:14.624Z,5.27
2019-05-29T22:40:42.701Z,5.60
2019-05-29T22:43:10.797Z,4.73
2019-05-29T22:45:38.875Z,5.77
2019-05-29T22:48:06.965Z,6.97
2019-05-29T22:50:35.058Z,5.00
2019-05-29T22:53:03.210Z,5.37
2019-05-29T22:55:31.474Z,6.53
2019-05-29T22:58:00.067Z,6.07
2019-05-29T23:00:28.521Z,5.83
2019-05-29T23:02:56.611Z,7.23
2019-05-29T23:05:25.326Z,6.53
2019-05-29T23:07:54.136Z,5.93
2019-05-29T23:10:22.677Z,7.27
2019-05-29T23:12:52.806Z,5.93
2019-05-29T23:15:21.410Z,6.00
2019-05-29T23:17:49.489Z,6.10
2019-05-29T23:20:17.747Z,5.00
2019-05-29T23:22:45.840Z,7.53
2019-05-29T23:25:14.002Z,4.90
2019-05-29T23:27:42.389Z,5.57
2019-05-29T23:30:10.936Z,5.67
2019-05-29T23:32:39.357Z,4.90
2019-05-29T23:35:08.021Z,5.17
2019-05-29T23:37:36.112Z,4.73
2019-05-29T23:40:08.194Z,4.57
2019-05-29T23:42:36.273Z,4.63
2019-05-29T23:45:07.350Z,4.80
2019-05-29T23:47:35.768Z,4.43
2019-05-29T23:50:06.985Z,4.60
2019-05-29T23:52:35.114Z,4.90
2019-05-29T23:55:04.183Z,8.33
2019-05-29T23:57:32.485Z,6.40
